PAL110 RPLL-PGUM
Flight info
| Callsign | PAL110 |
|---|---|
| Flight time | N/A |
| Altitude | 33000 |
| Route | JOM2R JOM G467 ACRON |
| Aircraft | A321/M-SDE3FGHIRWY/LB1 |
Departure
| Time | N/A |
|---|---|
| Airport | Ninoy Aquino International Airport (RPLL) |
Arrival
| Time | 2026-04-26 10:50 |
|---|---|
| Airport | Antonio B. Won Pat International Airport (PGUM) |
| Time | Latitude | Longitude | Altitude | Speed | Heading |
|---|---|---|---|---|---|
| 2026-04-26 08:43 | 14.23976 | 131.19359 | 32920 ft | 467 kts | 92° |
| 2026-04-26 08:43 | 14.23904 | 131.25655 | 32919 ft | 468 kts | 92° |
| 2026-04-26 08:44 | 14.23824 | 131.32675 | 32915 ft | 467 kts | 92° |
| 2026-04-26 08:44 | 14.23748 | 131.39149 | 32919 ft | 467 kts | 92° |
| 2026-04-26 08:45 | 14.23588 | 131.52002 | 32919 ft | 466 kts | 92° |
| 2026-04-26 08:46 | 14.23504 | 131.58640 | 32917 ft | 466 kts | 92° |
| 2026-04-26 08:46 | 14.23418 | 131.65286 | 32917 ft | 466 kts | 92° |
| 2026-04-26 08:47 | 14.23329 | 131.71918 | 32913 ft | 466 kts | 92° |
| 2026-04-26 08:47 | 14.23237 | 131.78575 | 32911 ft | 466 kts | 92° |
| 2026-04-26 08:48 | 14.23144 | 131.85277 | 32916 ft | 467 kts | 92° |
| 2026-04-26 08:48 | 14.23052 | 131.91893 | 32914 ft | 466 kts | 92° |
| 2026-04-26 08:49 | 14.22957 | 131.98523 | 32912 ft | 465 kts | 92° |
| 2026-04-26 08:49 | 14.22860 | 132.05164 | 32920 ft | 464 kts | 92° |
| 2026-04-26 08:50 | 14.22761 | 132.11807 | 32919 ft | 465 kts | 92° |
| 2026-04-26 08:50 | 14.22659 | 132.18448 | 32918 ft | 464 kts | 92° |
| 2026-04-26 08:51 | 14.22504 | 132.28380 | 32917 ft | 464 kts | 92° |
| 2026-04-26 08:52 | 14.22399 | 132.35007 | 32920 ft | 464 kts | 92° |
| 2026-04-26 08:52 | 14.22291 | 132.41611 | 32916 ft | 463 kts | 92° |
| 2026-04-26 08:53 | 14.22183 | 132.48228 | 32918 ft | 463 kts | 92° |
| 2026-04-26 08:53 | 14.22073 | 132.54837 | 32920 ft | 462 kts | 92° |
| 2026-04-26 08:54 | 14.21961 | 132.61415 | 32918 ft | 462 kts | 92° |
| 2026-04-26 08:54 | 14.21848 | 132.68028 | 32921 ft | 462 kts | 92° |
| 2026-04-26 08:55 | 14.21732 | 132.74641 | 32918 ft | 462 kts | 92° |
| 2026-04-26 08:55 | 14.21612 | 132.81242 | 32917 ft | 462 kts | 92° |
| 2026-04-26 08:56 | 14.21492 | 132.87833 | 32919 ft | 462 kts | 92° |
| 2026-04-26 08:56 | 14.21372 | 132.94411 | 32918 ft | 462 kts | 92° |
| 2026-04-26 08:57 | 14.21249 | 133.00978 | 32919 ft | 461 kts | 92° |
| 2026-04-26 08:57 | 14.21125 | 133.07575 | 32919 ft | 460 kts | 92° |
| 2026-04-26 08:58 | 14.20999 | 133.14140 | 32922 ft | 460 kts | 92° |
| 2026-04-26 08:58 | 14.20872 | 133.20721 | 32929 ft | 461 kts | 92° |
| 2026-04-26 08:59 | 14.20741 | 133.27280 | 32935 ft | 461 kts | 92° |
| 2026-04-26 08:59 | 14.20610 | 133.33862 | 32936 ft | 460 kts | 92° |
| 2026-04-26 09:00 | 14.20476 | 133.40436 | 32937 ft | 460 kts | 92° |
| 2026-04-26 09:00 | 14.20341 | 133.47015 | 32936 ft | 460 kts | 92° |
| 2026-04-26 09:01 | 14.20203 | 133.53583 | 32936 ft | 459 kts | 92° |
| 2026-04-26 09:01 | 14.20065 | 133.60129 | 32937 ft | 459 kts | 92° |
| 2026-04-26 09:02 | 14.19925 | 133.66678 | 32936 ft | 459 kts | 92° |
| 2026-04-26 09:02 | 14.19784 | 133.73265 | 32936 ft | 459 kts | 92° |
| 2026-04-26 09:03 | 14.19640 | 133.79810 | 32936 ft | 459 kts | 92° |
| 2026-04-26 09:03 | 14.19494 | 133.86383 | 32936 ft | 460 kts | 92° |
| 2026-04-26 09:04 | 14.19346 | 133.92950 | 32937 ft | 460 kts | 93° |
| 2026-04-26 09:04 | 14.19196 | 133.99516 | 32937 ft | 460 kts | 93° |
| 2026-04-26 09:05 | 14.19044 | 134.06097 | 32937 ft | 460 kts | 93° |
| 2026-04-26 09:05 | 14.18891 | 134.12669 | 32937 ft | 460 kts | 92° |
| 2026-04-26 09:06 | 14.18735 | 134.19246 | 32937 ft | 460 kts | 92° |
| 2026-04-26 09:06 | 14.18578 | 134.25847 | 32937 ft | 460 kts | 92° |
| 2026-04-26 09:07 | 14.18419 | 134.32419 | 32936 ft | 460 kts | 92° |
| 2026-04-26 09:07 | 14.18258 | 134.38995 | 32934 ft | 460 kts | 92° |
| 2026-04-26 09:08 | 14.18097 | 134.45522 | 32931 ft | 459 kts | 92° |
| 2026-04-26 09:08 | 14.17933 | 134.52100 | 32928 ft | 459 kts | 92° |
| 2026-04-26 09:09 | 14.17768 | 134.58659 | 32929 ft | 460 kts | 92° |
| 2026-04-26 09:09 | 14.17599 | 134.65225 | 32924 ft | 460 kts | 92° |
| 2026-04-26 09:10 | 14.17429 | 134.71828 | 32923 ft | 460 kts | 92° |
| 2026-04-26 09:10 | 14.17258 | 134.78361 | 32923 ft | 460 kts | 92° |
| 2026-04-26 09:11 | 14.17143 | 134.82738 | 32924 ft | 460 kts | 92° |
| 2026-04-26 09:11 | 14.16908 | 134.91539 | 32921 ft | 460 kts | 92° |
| 2026-04-26 09:12 | 14.16730 | 134.98103 | 32922 ft | 460 kts | 92° |
| 2026-04-26 09:12 | 14.16491 | 135.04640 | 32929 ft | 460 kts | 94° |
| 2026-04-26 09:13 | 14.16168 | 135.11243 | 32934 ft | 459 kts | 94° |
| 2026-04-26 09:13 | 14.15849 | 135.17760 | 32933 ft | 459 kts | 94° |
| 2026-04-26 09:14 | 14.15530 | 135.24335 | 32932 ft | 459 kts | 94° |
| 2026-04-26 09:14 | 14.15215 | 135.30850 | 32932 ft | 459 kts | 94° |
| 2026-04-26 09:15 | 14.14899 | 135.37390 | 32930 ft | 458 kts | 94° |
| 2026-04-26 09:15 | 14.14579 | 135.43957 | 32930 ft | 458 kts | 94° |
| 2026-04-26 09:16 | 14.14259 | 135.50475 | 32929 ft | 457 kts | 94° |
| 2026-04-26 09:16 | 14.13939 | 135.56969 | 32928 ft | 456 kts | 94° |
| 2026-04-26 09:17 | 14.13616 | 135.63467 | 32928 ft | 455 kts | 94° |
| 2026-04-26 09:17 | 14.13291 | 135.69975 | 32932 ft | 455 kts | 94° |
| 2026-04-26 09:18 | 14.12965 | 135.76474 | 32936 ft | 455 kts | 94° |
| 2026-04-26 09:18 | 14.12640 | 135.82951 | 32936 ft | 455 kts | 94° |
| 2026-04-26 09:19 | 14.12310 | 135.89461 | 32936 ft | 455 kts | 94° |
| 2026-04-26 09:19 | 14.11981 | 135.95921 | 32937 ft | 455 kts | 94° |
| 2026-04-26 09:20 | 14.11648 | 136.02417 | 32935 ft | 454 kts | 94° |
| 2026-04-26 09:20 | 14.11314 | 136.08907 | 32934 ft | 453 kts | 94° |
| 2026-04-26 09:21 | 14.10980 | 136.15361 | 32934 ft | 453 kts | 94° |
| 2026-04-26 09:21 | 14.10642 | 136.21852 | 32932 ft | 453 kts | 94° |
| 2026-04-26 09:22 | 14.10305 | 136.28294 | 32928 ft | 454 kts | 94° |
| 2026-04-26 09:22 | 14.09965 | 136.34790 | 32923 ft | 454 kts | 94° |
| 2026-04-26 09:23 | 14.09625 | 136.41251 | 32916 ft | 454 kts | 94° |
| 2026-04-26 09:23 | 14.09280 | 136.47745 | 32916 ft | 454 kts | 94° |
| 2026-04-26 09:24 | 14.08934 | 136.54198 | 32915 ft | 453 kts | 94° |
| 2026-04-26 09:24 | 14.08587 | 136.60672 | 32912 ft | 454 kts | 94° |
| 2026-04-26 09:25 | 14.08237 | 136.67169 | 32916 ft | 454 kts | 94° |
| 2026-04-26 09:25 | 14.07886 | 136.73631 | 32914 ft | 455 kts | 94° |
| 2026-04-26 09:26 | 14.07533 | 136.80125 | 32914 ft | 455 kts | 94° |
| 2026-04-26 09:26 | 14.07179 | 136.86606 | 32913 ft | 454 kts | 94° |
| 2026-04-26 09:27 | 14.06823 | 136.93108 | 32914 ft | 454 kts | 94° |
| 2026-04-26 09:27 | 14.06464 | 136.99585 | 32912 ft | 454 kts | 94° |
| 2026-04-26 09:28 | 14.06105 | 137.06056 | 32919 ft | 454 kts | 94° |
| 2026-04-26 09:28 | 14.05743 | 137.12526 | 32919 ft | 454 kts | 94° |
| 2026-04-26 09:29 | 14.05383 | 137.18965 | 32920 ft | 454 kts | 94° |
| 2026-04-26 09:29 | 14.05018 | 137.25461 | 32916 ft | 454 kts | 94° |
| 2026-04-26 09:30 | 14.04654 | 137.31908 | 32919 ft | 454 kts | 94° |
| 2026-04-26 09:30 | 14.04284 | 137.38403 | 32920 ft | 454 kts | 94° |
| 2026-04-26 09:31 | 14.03915 | 137.44881 | 32918 ft | 454 kts | 94° |
| 2026-04-26 09:31 | 14.03544 | 137.51338 | 32918 ft | 453 kts | 94° |
| 2026-04-26 09:32 | 14.03172 | 137.57791 | 32921 ft | 453 kts | 94° |
| 2026-04-26 09:32 | 14.02797 | 137.64272 | 32917 ft | 453 kts | 94° |
| 2026-04-26 09:33 | 14.02422 | 137.70725 | 32920 ft | 453 kts | 95° |
| 2026-04-26 09:33 | 14.02045 | 137.77156 | 32916 ft | 452 kts | 94° |
| 2026-04-26 09:34 | 14.01665 | 137.83624 | 32920 ft | 452 kts | 94° |
| 2026-04-26 09:34 | 14.01287 | 137.90056 | 32919 ft | 453 kts | 94° |
| 2026-04-26 09:35 | 14.00904 | 137.96527 | 32918 ft | 453 kts | 94° |
| 2026-04-26 09:35 | 14.00521 | 138.02972 | 32918 ft | 452 kts | 94° |
| 2026-04-26 09:36 | 14.00138 | 138.09390 | 32918 ft | 451 kts | 94° |
| 2026-04-26 09:36 | 13.99749 | 138.15816 | 32918 ft | 451 kts | 94° |
| 2026-04-26 09:37 | 13.99363 | 138.22224 | 32917 ft | 450 kts | 94° |
| 2026-04-26 09:37 | 13.98976 | 138.28639 | 32916 ft | 451 kts | 94° |
| 2026-04-26 09:38 | 13.98582 | 138.35098 | 32916 ft | 450 kts | 94° |
| 2026-04-26 09:38 | 13.98190 | 138.41507 | 32916 ft | 450 kts | 94° |
| 2026-04-26 09:39 | 13.97795 | 138.47917 | 32916 ft | 449 kts | 93° |
| 2026-04-26 09:39 | 13.97405 | 138.54274 | 32916 ft | 449 kts | 93° |
| 2026-04-26 09:40 | 13.97008 | 138.60693 | 32916 ft | 449 kts | 93° |
| 2026-04-26 09:40 | 13.96613 | 138.67053 | 32917 ft | 449 kts | 93° |
| 2026-04-26 09:41 | 13.96211 | 138.73471 | 32916 ft | 450 kts | 93° |
| 2026-04-26 09:41 | 13.95809 | 138.79918 | 32916 ft | 451 kts | 93° |
| 2026-04-26 09:42 | 13.95405 | 138.86334 | 32916 ft | 452 kts | 93° |
| 2026-04-26 09:42 | 13.94998 | 138.92790 | 32916 ft | 452 kts | 93° |
| 2026-04-26 09:43 | 13.94591 | 138.99203 | 32917 ft | 452 kts | 93° |
| 2026-04-26 09:43 | 13.94180 | 139.05650 | 32917 ft | 452 kts | 93° |
| 2026-04-26 09:44 | 13.93767 | 139.12097 | 32919 ft | 451 kts | 93° |
| 2026-04-26 09:44 | 13.93354 | 139.18521 | 32919 ft | 451 kts | 93° |
| 2026-04-26 09:45 | 13.92943 | 139.24902 | 32920 ft | 451 kts | 93° |
| 2026-04-26 09:45 | 13.92524 | 139.31360 | 32920 ft | 452 kts | 93° |
| 2026-04-26 09:46 | 13.92106 | 139.37785 | 32922 ft | 452 kts | 93° |
| 2026-04-26 09:46 | 13.91685 | 139.44235 | 32927 ft | 451 kts | 93° |
| 2026-04-26 09:47 | 13.91264 | 139.50648 | 32931 ft | 451 kts | 93° |
| 2026-04-26 09:47 | 13.90843 | 139.57050 | 32929 ft | 451 kts | 93° |
| 2026-04-26 09:48 | 13.90414 | 139.63515 | 32923 ft | 451 kts | 92° |
| 2026-04-26 09:48 | 13.89989 | 139.69919 | 32918 ft | 452 kts | 93° |
| 2026-04-26 09:49 | 13.89559 | 139.76379 | 32916 ft | 453 kts | 93° |
| 2026-04-26 09:49 | 13.89131 | 139.82796 | 32916 ft | 453 kts | 93° |
| 2026-04-26 09:50 | 13.88697 | 139.89253 | 32916 ft | 453 kts | 92° |
| 2026-04-26 09:50 | 13.88262 | 139.95709 | 32916 ft | 453 kts | 93° |
| 2026-04-26 09:51 | 13.87824 | 140.02164 | 32916 ft | 452 kts | 92° |
| 2026-04-26 09:51 | 13.87385 | 140.08617 | 32916 ft | 453 kts | 92° |
| 2026-04-26 09:52 | 13.86944 | 140.15089 | 32916 ft | 453 kts | 92° |
| 2026-04-26 09:52 | 13.86280 | 140.24780 | 32916 ft | 454 kts | 92° |
| 2026-04-26 09:53 | 13.85834 | 140.31230 | 32916 ft | 453 kts | 92° |
| 2026-04-26 09:53 | 13.85389 | 140.37669 | 32917 ft | 453 kts | 92° |
| 2026-04-26 09:54 | 13.84940 | 140.44121 | 32916 ft | 453 kts | 92° |
| 2026-04-26 09:54 | 13.84488 | 140.50581 | 32916 ft | 454 kts | 92° |
| 2026-04-26 09:55 | 13.84035 | 140.57047 | 32916 ft | 454 kts | 92° |
| 2026-04-26 09:55 | 13.83580 | 140.63504 | 32916 ft | 454 kts | 92° |
| 2026-04-26 09:56 | 13.83075 | 140.69949 | 32921 ft | 454 kts | 93° |
| 2026-04-26 09:56 | 13.82526 | 140.76413 | 32926 ft | 454 kts | 93° |
| 2026-04-26 09:57 | 13.81978 | 140.82857 | 32927 ft | 454 kts | 93° |
| 2026-04-26 09:57 | 13.81431 | 140.89294 | 32932 ft | 453 kts | 93° |
| 2026-04-26 09:58 | 13.80885 | 140.95731 | 32931 ft | 454 kts | 93° |
| 2026-04-26 09:58 | 13.80332 | 141.02216 | 32931 ft | 455 kts | 93° |
| 2026-04-26 09:59 | 13.79784 | 141.08658 | 32932 ft | 455 kts | 93° |
| 2026-04-26 09:59 | 13.79232 | 141.15117 | 32933 ft | 455 kts | 93° |
| 2026-04-26 10:00 | 13.78676 | 141.21571 | 32933 ft | 454 kts | 93° |
| 2026-04-26 10:00 | 13.78118 | 141.28050 | 32932 ft | 454 kts | 93° |
| 2026-04-26 10:01 | 13.77564 | 141.34465 | 32934 ft | 454 kts | 93° |
| 2026-04-26 10:01 | 13.77005 | 141.40913 | 32933 ft | 454 kts | 93° |
| 2026-04-26 10:02 | 13.76445 | 141.47365 | 32935 ft | 454 kts | 92° |
| 2026-04-26 10:02 | 13.75879 | 141.53848 | 32936 ft | 454 kts | 92° |
| 2026-04-26 10:03 | 13.75318 | 141.60274 | 32937 ft | 453 kts | 93° |
| 2026-04-26 10:03 | 13.74750 | 141.66751 | 32937 ft | 453 kts | 93° |
| 2026-04-26 10:04 | 13.74184 | 141.73172 | 32937 ft | 453 kts | 93° |
| 2026-04-26 10:04 | 13.73617 | 141.79599 | 32936 ft | 453 kts | 93° |
| 2026-04-26 10:05 | 13.73047 | 141.86035 | 32936 ft | 453 kts | 92° |
| 2026-04-26 10:05 | 13.72474 | 141.92493 | 32936 ft | 453 kts | 92° |
| 2026-04-26 10:06 | 13.71899 | 141.98924 | 32936 ft | 453 kts | 93° |
| 2026-04-26 10:06 | 13.71324 | 142.05337 | 32935 ft | 453 kts | 93° |
| 2026-04-26 10:07 | 13.70747 | 142.11762 | 32935 ft | 453 kts | 92° |
| 2026-04-26 10:07 | 13.70164 | 142.18224 | 32927 ft | 453 kts | 92° |
| 2026-04-26 10:08 | 13.69587 | 142.24628 | 32927 ft | 452 kts | 92° |
| 2026-04-26 10:08 | 13.69008 | 142.31045 | 32928 ft | 452 kts | 92° |
| 2026-04-26 10:09 | 13.68425 | 142.37491 | 32927 ft | 452 kts | 92° |
| 2026-04-26 10:09 | 13.67841 | 142.43907 | 32929 ft | 453 kts | 92° |
| 2026-04-26 10:10 | 13.67257 | 142.50316 | 32927 ft | 452 kts | 92° |
| 2026-04-26 10:10 | 13.66669 | 142.56757 | 32928 ft | 452 kts | 92° |
| 2026-04-26 10:11 | 13.66083 | 142.63136 | 32926 ft | 452 kts | 92° |
| 2026-04-26 10:11 | 13.65490 | 142.69582 | 32927 ft | 452 kts | 92° |
| 2026-04-26 10:12 | 13.64898 | 142.76015 | 32213 ft | 455 kts | 92° |
| 2026-04-26 10:12 | 13.64599 | 142.79259 | 31550 ft | 456 kts | 92° |
| 2026-04-26 10:12 | 13.64302 | 142.82486 | 30878 ft | 456 kts | 92° |
| 2026-04-26 10:13 | 13.64006 | 142.85684 | 30199 ft | 456 kts | 92° |
| 2026-04-26 10:13 | 13.63707 | 142.88915 | 29503 ft | 456 kts | 93° |
| 2026-04-26 10:13 | 13.63406 | 142.92146 | 28859 ft | 454 kts | 93° |
| 2026-04-26 10:13 | 13.63105 | 142.95363 | 28435 ft | 447 kts | 93° |
| 2026-04-26 10:14 | 13.62808 | 142.98528 | 27997 ft | 442 kts | 93° |
| 2026-04-26 10:14 | 13.62518 | 143.01634 | 27561 ft | 437 kts | 93° |
| 2026-04-26 10:14 | 13.62153 | 143.04689 | 27120 ft | 433 kts | 96° |
| 2026-04-26 10:14 | 13.61716 | 143.07754 | 26674 ft | 429 kts | 96° |
| 2026-04-26 10:15 | 13.61280 | 143.10747 | 26236 ft | 424 kts | 96° |
| 2026-04-26 10:15 | 13.60845 | 143.13711 | 25801 ft | 420 kts | 97° |
| 2026-04-26 10:15 | 13.60411 | 143.16672 | 25365 ft | 416 kts | 97° |
| 2026-04-26 10:15 | 13.59984 | 143.19585 | 24929 ft | 412 kts | 97° |
| 2026-04-26 10:16 | 13.59564 | 143.22455 | 24504 ft | 408 kts | 97° |
| 2026-04-26 10:16 | 13.59143 | 143.25325 | 24073 ft | 404 kts | 97° |
| 2026-04-26 10:16 | 13.58728 | 143.28160 | 23628 ft | 401 kts | 97° |
| 2026-04-26 10:16 | 13.58312 | 143.31007 | 23191 ft | 398 kts | 97° |
| 2026-04-26 10:17 | 13.57902 | 143.33800 | 22766 ft | 395 kts | 97° |
| 2026-04-26 10:17 | 13.57497 | 143.36563 | 22350 ft | 392 kts | 97° |
| 2026-04-26 10:17 | 13.57095 | 143.39304 | 21927 ft | 389 kts | 97° |
| 2026-04-26 10:17 | 13.56692 | 143.42052 | 21495 ft | 386 kts | 97° |
| 2026-04-26 10:18 | 13.56294 | 143.44740 | 21075 ft | 384 kts | 97° |
| 2026-04-26 10:18 | 13.55895 | 143.47443 | 20650 ft | 382 kts | 97° |
| 2026-04-26 10:18 | 13.55500 | 143.50128 | 20221 ft | 380 kts | 97° |
| 2026-04-26 10:18 | 13.55105 | 143.52794 | 19798 ft | 378 kts | 97° |
| 2026-04-26 10:19 | 13.54714 | 143.55458 | 19368 ft | 376 kts | 97° |
| 2026-04-26 10:19 | 13.54322 | 143.58112 | 18929 ft | 375 kts | 97° |
| 2026-04-26 10:19 | 13.53937 | 143.60718 | 18506 ft | 373 kts | 97° |
| 2026-04-26 10:19 | 13.53550 | 143.63335 | 18078 ft | 372 kts | 97° |
| 2026-04-26 10:20 | 13.53158 | 143.65979 | 17646 ft | 370 kts | 97° |
| 2026-04-26 10:20 | 13.52775 | 143.68570 | 17223 ft | 369 kts | 97° |
| 2026-04-26 10:20 | 13.52391 | 143.71173 | 16804 ft | 367 kts | 97° |
| 2026-04-26 10:20 | 13.52011 | 143.73747 | 16383 ft | 366 kts | 97° |
| 2026-04-26 10:21 | 13.51632 | 143.76306 | 15957 ft | 365 kts | 97° |
| 2026-04-26 10:21 | 13.51252 | 143.78870 | 15523 ft | 364 kts | 97° |
| 2026-04-26 10:21 | 13.50870 | 143.81447 | 15083 ft | 363 kts | 97° |
| 2026-04-26 10:21 | 13.50491 | 143.83989 | 14647 ft | 362 kts | 98° |
| 2026-04-26 10:22 | 13.50114 | 143.86531 | 14204 ft | 361 kts | 98° |
| 2026-04-26 10:22 | 13.49732 | 143.89105 | 13761 ft | 360 kts | 98° |
| 2026-04-26 10:22 | 13.49357 | 143.91625 | 13333 ft | 358 kts | 98° |
| 2026-04-26 10:22 | 13.48984 | 143.94125 | 12914 ft | 357 kts | 98° |
| 2026-04-26 10:23 | 13.48610 | 143.96628 | 12502 ft | 355 kts | 98° |
| 2026-04-26 10:23 | 13.48236 | 143.99124 | 12082 ft | 353 kts | 98° |
| 2026-04-26 10:23 | 13.47866 | 144.01605 | 11648 ft | 352 kts | 98° |
| 2026-04-26 10:23 | 13.47492 | 144.04100 | 11223 ft | 350 kts | 98° |
| 2026-04-26 10:24 | 13.47126 | 144.06547 | 10794 ft | 348 kts | 98° |
| 2026-04-26 10:24 | 13.46761 | 144.08981 | 10462 ft | 343 kts | 98° |
| 2026-04-26 10:24 | 13.46402 | 144.11375 | 10245 ft | 334 kts | 98° |
| 2026-04-26 10:24 | 13.46057 | 144.13684 | 10120 ft | 323 kts | 98° |
| 2026-04-26 10:25 | 13.45718 | 144.15941 | 9947 ft | 312 kts | 98° |
| 2026-04-26 10:25 | 13.45397 | 144.18076 | 9692 ft | 301 kts | 98° |
| 2026-04-26 10:25 | 13.45080 | 144.20181 | 9346 ft | 295 kts | 99° |
| 2026-04-26 10:25 | 13.44768 | 144.22253 | 9008 ft | 292 kts | 98° |
| 2026-04-26 10:26 | 13.44462 | 144.24286 | 8687 ft | 290 kts | 98° |
| 2026-04-26 10:26 | 13.44154 | 144.26329 | 8362 ft | 288 kts | 98° |
| 2026-04-26 10:26 | 13.43848 | 144.28358 | 8030 ft | 286 kts | 98° |
| 2026-04-26 10:26 | 13.43550 | 144.30337 | 7712 ft | 284 kts | 98° |
| 2026-04-26 10:27 | 13.43248 | 144.32342 | 7386 ft | 282 kts | 98° |
| 2026-04-26 10:27 | 13.42949 | 144.34326 | 7062 ft | 280 kts | 98° |
| 2026-04-26 10:27 | 13.42652 | 144.36293 | 6742 ft | 278 kts | 98° |
| 2026-04-26 10:27 | 13.42358 | 144.38243 | 6422 ft | 276 kts | 98° |
| 2026-04-26 10:28 | 13.42065 | 144.40179 | 6104 ft | 274 kts | 98° |
| 2026-04-26 10:28 | 13.41771 | 144.42122 | 5782 ft | 273 kts | 98° |
| 2026-04-26 10:28 | 13.41482 | 144.44034 | 5465 ft | 271 kts | 97° |
| 2026-04-26 10:28 | 13.41198 | 144.45912 | 5222 ft | 266 kts | 97° |
| 2026-04-26 10:29 | 13.40914 | 144.47789 | 4885 ft | 265 kts | 97° |
| 2026-04-26 10:29 | 13.40630 | 144.49670 | 4567 ft | 264 kts | 97° |
| 2026-04-26 10:29 | 13.40351 | 144.51511 | 4338 ft | 259 kts | 97° |
| 2026-04-26 10:29 | 13.40077 | 144.53317 | 3984 ft | 259 kts | 97° |
| 2026-04-26 10:30 | 13.39804 | 144.55113 | 3653 ft | 250 kts | 97° |
| 2026-04-26 10:30 | 13.39543 | 144.56828 | 3354 ft | 238 kts | 96° |
| 2026-04-26 10:30 | 13.39347 | 144.58501 | 3063 ft | 229 kts | 86° |
| 2026-04-26 10:30 | 13.39606 | 144.60053 | 2957 ft | 217 kts | 72° |
| 2026-04-26 10:31 | 13.40151 | 144.61488 | 2964 ft | 211 kts | 66° |
| 2026-04-26 10:31 | 13.40759 | 144.62814 | 2972 ft | 201 kts | 65° |
| 2026-04-26 10:31 | 13.41364 | 144.64104 | 2984 ft | 201 kts | 65° |
| 2026-04-26 10:31 | 13.41967 | 144.65408 | 2825 ft | 201 kts | 65° |
| 2026-04-26 10:32 | 13.42560 | 144.66704 | 2572 ft | 201 kts | 65° |
| 2026-04-26 10:32 | 13.43154 | 144.68010 | 2310 ft | 201 kts | 65° |
| 2026-04-26 10:32 | 13.43730 | 144.69276 | 2146 ft | 188 kts | 65° |
| 2026-04-26 10:32 | 13.44265 | 144.70453 | 1873 ft | 177 kts | 64° |
| 2026-04-26 10:33 | 13.44778 | 144.71574 | 1606 ft | 166 kts | 65° |
| 2026-04-26 10:33 | 13.45243 | 144.72601 | 1419 ft | 152 kts | 65° |
| 2026-04-26 10:33 | 13.45678 | 144.73550 | 1219 ft | 143 kts | 65° |
| 2026-04-26 10:33 | 13.46099 | 144.74475 | 1044 ft | 143 kts | 65° |
| 2026-04-26 10:34 | 13.46523 | 144.75403 | 867 ft | 144 kts | 65° |
| 2026-04-26 10:34 | 13.46953 | 144.76343 | 688 ft | 145 kts | 65° |
| 2026-04-26 10:34 | 13.47386 | 144.77284 | 495 ft | 146 kts | 65° |
| 2026-04-26 10:34 | 13.47448 | 144.77417 | 473 ft | 146 kts | 65° |
| 2026-04-26 10:35 | 13.47825 | 144.78238 | 311 ft | 147 kts | 66° |
| 2026-04-26 10:35 | 13.48235 | 144.79150 | 265 ft | 134 kts | 64° |
| 2026-04-26 10:35 | 13.48665 | 144.80081 | 695 ft | 151 kts | 64° |
| 2026-04-26 10:36 | 13.49099 | 144.81024 | 1443 ft | 142 kts | 64° |
| 2026-04-26 10:36 | 13.49544 | 144.81909 | 1891 ft | 144 kts | 61° |
| 2026-04-26 10:36 | 13.50035 | 144.82846 | 2091 ft | 164 kts | 64° |
| 2026-04-26 10:36 | 13.50188 | 144.84132 | 2108 ft | 199 kts | 99° |
| 2026-04-26 10:37 | 13.49430 | 144.85420 | 2328 ft | 230 kts | 135° |
| 2026-04-26 10:37 | 13.47904 | 144.86070 | 2752 ft | 248 kts | 172° |
| 2026-04-26 10:37 | 13.46217 | 144.85661 | 2970 ft | 257 kts | 209° |
| 2026-04-26 10:37 | 13.45036 | 144.84312 | 2971 ft | 261 kts | 248° |
| 2026-04-26 10:38 | 13.44792 | 144.82475 | 2984 ft | 259 kts | 278° |
| 2026-04-26 10:38 | 13.45039 | 144.80635 | 2982 ft | 261 kts | 281° |
| 2026-04-26 10:38 | 13.45265 | 144.78806 | 2977 ft | 262 kts | 278° |
| 2026-04-26 10:38 | 13.45393 | 144.76920 | 2974 ft | 262 kts | 275° |
| 2026-04-26 10:39 | 13.45444 | 144.75050 | 2970 ft | 262 kts | 273° |
| 2026-04-26 10:39 | 13.45291 | 144.73177 | 2965 ft | 264 kts | 258° |
| 2026-04-26 10:39 | 13.44696 | 144.71416 | 2971 ft | 265 kts | 246° |
| 2026-04-26 10:39 | 13.43907 | 144.69690 | 2972 ft | 264 kts | 244° |
| 2026-04-26 10:40 | 13.43105 | 144.68002 | 2970 ft | 263 kts | 244° |
| 2026-04-26 10:40 | 13.42304 | 144.66298 | 2971 ft | 264 kts | 244° |
| 2026-04-26 10:40 | 13.41524 | 144.64598 | 2973 ft | 264 kts | 244° |
| 2026-04-26 10:40 | 13.40744 | 144.62875 | 2972 ft | 264 kts | 245° |
| 2026-04-26 10:41 | 13.39980 | 144.61179 | 2971 ft | 264 kts | 245° |
| 2026-04-26 10:41 | 13.39210 | 144.59468 | 2969 ft | 263 kts | 245° |
| 2026-04-26 10:41 | 13.38409 | 144.57767 | 2967 ft | 263 kts | 243° |
| 2026-04-26 10:41 | 13.37589 | 144.56099 | 2966 ft | 262 kts | 243° |
| 2026-04-26 10:42 | 13.36767 | 144.54437 | 2965 ft | 263 kts | 243° |
| 2026-04-26 10:42 | 13.35835 | 144.52814 | 2950 ft | 261 kts | 225° |
| 2026-04-26 10:42 | 13.34339 | 144.51881 | 2946 ft | 248 kts | 186° |
| 2026-04-26 10:42 | 13.32688 | 144.51999 | 2960 ft | 235 kts | 152° |
| 2026-04-26 10:43 | 13.31375 | 144.52934 | 2966 ft | 224 kts | 124° |
| 2026-04-26 10:43 | 13.30716 | 144.54324 | 2964 ft | 216 kts | 96° |
| 2026-04-26 10:43 | 13.30809 | 144.55838 | 2963 ft | 213 kts | 70° |
| 2026-04-26 10:43 | 13.31610 | 144.57112 | 2962 ft | 215 kts | 44° |
| 2026-04-26 10:44 | 13.32928 | 144.57848 | 2962 ft | 223 kts | 20° |
| 2026-04-26 10:44 | 13.34469 | 144.58218 | 2964 ft | 225 kts | 18° |
| 2026-04-26 10:44 | 13.35996 | 144.58575 | 2960 ft | 224 kts | 18° |
| 2026-04-26 10:44 | 13.37524 | 144.58933 | 2961 ft | 225 kts | 18° |
| 2026-04-26 10:45 | 13.38903 | 144.59543 | 2923 ft | 208 kts | 44° |
| 2026-04-26 10:45 | 13.39775 | 144.60677 | 2949 ft | 199 kts | 61° |
| 2026-04-26 10:45 | 13.40410 | 144.61943 | 2958 ft | 200 kts | 65° |
| 2026-04-26 10:45 | 13.40993 | 144.63235 | 2963 ft | 200 kts | 66° |
| 2026-04-26 10:46 | 13.41562 | 144.64510 | 3021 ft | 188 kts | 66° |
| 2026-04-26 10:46 | 13.42093 | 144.65692 | 2817 ft | 182 kts | 66° |
| 2026-04-26 10:46 | 13.42624 | 144.66862 | 2564 ft | 177 kts | 65° |
| 2026-04-26 10:46 | 13.43139 | 144.67992 | 2320 ft | 170 kts | 65° |
| 2026-04-26 10:47 | 13.43608 | 144.69023 | 2117 ft | 153 kts | 65° |
| 2026-04-26 10:47 | 13.44040 | 144.69966 | 1908 ft | 141 kts | 65° |
| 2026-04-26 10:47 | 13.44457 | 144.70880 | 1736 ft | 139 kts | 65° |
| 2026-04-26 10:47 | 13.44864 | 144.71771 | 1576 ft | 139 kts | 65° |
| 2026-04-26 10:48 | 13.45278 | 144.72676 | 1405 ft | 140 kts | 64° |
| 2026-04-26 10:48 | 13.45698 | 144.73596 | 1244 ft | 142 kts | 65° |
| 2026-04-26 10:48 | 13.46120 | 144.74521 | 1054 ft | 143 kts | 65° |
| 2026-04-26 10:48 | 13.46543 | 144.75446 | 863 ft | 144 kts | 65° |
| 2026-04-26 10:49 | 13.46970 | 144.76381 | 674 ft | 145 kts | 65° |
| 2026-04-26 10:49 | 13.47403 | 144.77327 | 489 ft | 146 kts | 65° |
| 2026-04-26 10:49 | 13.47833 | 144.78271 | 311 ft | 146 kts | 66° |
| 2026-04-26 10:49 | 13.48249 | 144.79181 | 261 ft | 132 kts | 66° |
| 2026-04-26 10:50 | 13.48568 | 144.79880 | 273 ft | 83 kts | 66° |
| 2026-04-26 10:50 | 13.48753 | 144.80273 | 279 ft | 48 kts | 64° |
| 2026-04-26 10:50 | 13.48835 | 144.80391 | 284 ft | 8 kts | 33° |
| 2026-04-26 10:50 | 13.48898 | 144.80392 | 280 ft | 10 kts | 351° |
| 2026-04-26 10:51 | 13.48969 | 144.80392 | 277 ft | 12 kts | 30° |
| 2026-04-26 10:51 | 13.49054 | 144.80516 | 279 ft | 5 kts | 37° |
| 2026-04-26 10:51 | 13.49103 | 144.80499 | 275 ft | 7 kts | 328° |
| 2026-04-26 10:52 | 13.49129 | 144.80484 | 273 ft | 0 kts | 333° |